createdAt,value
2023-02-06T00:00:01.611Z,-5.07
2023-02-06T00:00:34.772Z,-5.07
2023-02-06T00:01:06.449Z,-5.03
2023-02-06T00:01:41.404Z,-5.05
2023-02-06T00:02:13.142Z,-5.04
2023-02-06T00:02:44.896Z,-5.04
2023-02-06T00:03:16.618Z,-5.06
2023-02-06T00:03:48.627Z,-5.05
2023-02-06T00:04:20.305Z,-5.03
2023-02-06T00:04:51.975Z,-5.08
2023-02-06T00:05:23.658Z,-5.05
2023-02-06T00:05:59.658Z,-5.06
2023-02-06T00:06:34.181Z,-5.06
2023-02-06T00:07:05.844Z,-5.07
2023-02-06T00:07:37.582Z,-5.02
2023-02-06T00:08:09.484Z,-5.05
2023-02-06T00:08:44.321Z,-5.07
2023-02-06T00:09:18.606Z,-5.06
2023-02-06T00:09:50.317Z,-5.03
2023-02-06T00:10:24.215Z,-5.02
2023-02-06T00:10:56.018Z,-5.02
2023-02-06T00:11:27.752Z,-5.00
2023-02-06T00:11:59.408Z,-5.02
2023-02-06T00:13:17.042Z,-5.03
2023-02-06T00:13:49.180Z,-5.04
2023-02-06T00:14:20.886Z,-5.03
2023-02-06T00:14:55.129Z,-4.99
2023-02-06T00:15:26.903Z,-4.98
2023-02-06T00:16:02.791Z,-4.96
2023-02-06T00:16:36.650Z,-4.92
2023-02-06T00:17:08.323Z,-4.90
2023-02-06T00:17:39.991Z,-4.93
2023-02-06T00:18:11.618Z,-4.90
2023-02-06T00:18:45.470Z,-4.86
2023-02-06T00:19:17.122Z,-4.86
2023-02-06T00:19:48.790Z,-4.84
2023-02-06T00:20:20.588Z,-4.84
2023-02-06T00:20:52.897Z,-4.82
2023-02-06T00:21:26.708Z,-4.81
2023-02-06T00:21:58.381Z,-4.79
2023-02-06T00:22:30.067Z,-4.83
2023-02-06T00:23:04.179Z,-4.82
2023-02-06T00:23:35.905Z,-4.79
2023-02-06T00:24:07.617Z,-4.79
2023-02-06T00:24:43.357Z,-4.77
2023-02-06T00:25:15.020Z,-4.77
2023-02-06T00:25:46.687Z,-4.78
2023-02-06T00:26:18.356Z,-4.76
2023-02-06T00:26:50.009Z,-4.74
2023-02-06T00:27:21.630Z,-4.76
2023-02-06T00:27:53.313Z,-4.77
2023-02-06T00:28:24.963Z,-4.79
2023-02-06T00:28:57.853Z,-4.81
2023-02-06T00:29:29.495Z,-4.79
2023-02-06T00:30:01.181Z,-4.82
2023-02-06T00:30:32.910Z,-4.85
2023-02-06T00:31:11.373Z,-4.88
2023-02-06T00:31:43.136Z,-4.89
2023-02-06T00:32:14.966Z,-4.92
2023-02-06T00:32:46.674Z,-4.91
2023-02-06T00:33:19.856Z,-4.90
2023-02-06T00:33:52.774Z,-4.89
2023-02-06T00:34:24.837Z,-4.87
2023-02-06T00:34:56.489Z,-4.88
2023-02-06T00:35:28.120Z,-4.87
2023-02-06T00:35:59.934Z,-4.87
2023-02-06T00:36:32.978Z,-4.83
2023-02-06T00:37:09.754Z,-4.81
2023-02-06T00:37:41.379Z,-4.82
2023-02-06T00:38:13.045Z,-4.82
2023-02-06T00:38:44.713Z,-4.82
2023-02-06T00:39:17.472Z,-4.79
2023-02-06T00:39:50.733Z,-4.79
2023-02-06T00:40:24.711Z,-4.79
2023-02-06T00:40:56.902Z,-4.79
2023-02-06T00:41:28.562Z,-4.74
2023-02-06T00:42:00.207Z,-4.73
2023-02-06T00:42:33.835Z,-4.73
2023-02-06T00:43:05.534Z,-4.73
2023-02-06T00:43:37.725Z,-4.71
2023-02-06T00:44:09.476Z,-4.68
2023-02-06T00:44:41.171Z,-4.71
2023-02-06T00:45:13.210Z,-4.71
2023-02-06T00:45:44.834Z,-4.71
2023-02-06T00:46:16.550Z,-4.70
2023-02-06T00:46:48.248Z,-4.71
2023-02-06T00:47:19.935Z,-4.72
2023-02-06T00:47:51.617Z,-4.70
2023-02-06T00:48:24.878Z,-4.72
2023-02-06T00:48:56.508Z,-4.71
2023-02-06T00:49:28.277Z,-4.72
2023-02-06T00:49:59.958Z,-4.71
2023-02-06T00:50:31.627Z,-4.68
2023-02-06T00:51:03.594Z,-4.69
2023-02-06T00:51:38.812Z,-4.72
2023-02-06T00:52:10.503Z,-4.73
2023-02-06T00:52:42.163Z,-4.75
2023-02-06T00:53:13.789Z,-4.74
2023-02-06T00:53:45.467Z,-4.72
2023-02-06T00:54:17.204Z,-4.74
2023-02-06T00:54:48.844Z,-4.73
2023-02-06T00:55:20.486Z,-4.76
2023-02-06T00:55:52.185Z,-4.77
2023-02-06T00:56:23.810Z,-4.78
2023-02-06T00:56:55.507Z,-4.77
2023-02-06T00:57:27.199Z,-4.80
2023-02-06T00:57:58.866Z,-4.76
2023-02-06T00:58:30.590Z,-4.77
2023-02-06T00:59:02.247Z,-4.77
2023-02-06T00:59:33.942Z,-4.77
2023-02-06T01:00:07.528Z,-4.76
2023-02-06T01:00:40.315Z,-4.71
2023-02-06T01:01:14.408Z,-4.70
2023-02-06T01:01:46.171Z,-4.69
2023-02-06T01:02:17.843Z,-4.73
2023-02-06T01:02:49.557Z,-4.75
2023-02-06T01:03:21.495Z,-4.76
2023-02-06T01:03:53.534Z,-4.79
2023-02-06T01:04:28.005Z,-4.80
2023-02-06T01:05:04.221Z,-4.82
2023-02-06T01:05:36.137Z,-4.88
2023-02-06T01:06:07.954Z,-4.93
2023-02-06T01:06:39.607Z,-4.91
2023-02-06T01:07:11.278Z,-4.92
2023-02-06T01:07:42.948Z,-4.96
2023-02-06T01:08:15.044Z,-5.03
2023-02-06T01:08:56.498Z,-5.10
2023-02-06T01:09:28.163Z,-5.10
2023-02-06T01:09:59.833Z,-5.14
2023-02-06T01:10:31.913Z,-5.18
2023-02-06T01:11:10.877Z,-5.19
2023-02-06T01:11:45.075Z,-5.24
2023-02-06T01:12:17.036Z,-5.25
2023-02-06T01:12:48.682Z,-5.27
2023-02-06T01:13:23.234Z,-5.26
2023-02-06T01:13:55.024Z,-5.24
2023-02-06T01:14:26.679Z,-5.28
2023-02-06T01:15:01.171Z,-5.32
2023-02-06T01:15:33.142Z,-5.33
2023-02-06T01:16:09.129Z,-5.34
2023-02-06T01:16:40.774Z,-5.32
2023-02-06T01:17:12.507Z,-5.33
2023-02-06T01:17:44.175Z,-5.37
2023-02-06T01:18:15.854Z,-5.41
2023-02-06T01:18:47.925Z,-5.43
2023-02-06T01:19:19.632Z,-5.41
2023-02-06T01:19:51.294Z,-5.41
2023-02-06T01:20:23.938Z,-5.43
2023-02-06T01:20:55.578Z,-5.42
2023-02-06T01:21:27.267Z,-5.42
2023-02-06T01:22:03.679Z,-5.41
2023-02-06T01:22:37.905Z,-5.39
2023-02-06T01:23:10.585Z,-5.39
2023-02-06T01:23:42.879Z,-5.37
2023-02-06T01:24:14.556Z,-5.36
2023-02-06T01:24:46.249Z,-5.33
2023-02-06T01:25:18.552Z,-5.32
2023-02-06T01:25:54.590Z,-5.30
2023-02-06T01:26:27.229Z,-5.28
2023-02-06T01:26:58.903Z,-5.29
2023-02-06T01:27:30.782Z,-5.29
2023-02-06T01:28:04.824Z,-5.31
2023-02-06T01:28:37.866Z,-5.28
2023-02-06T01:29:09.566Z,-5.31
2023-02-06T01:29:41.292Z,-5.30
2023-02-06T01:30:13.827Z,-5.32
2023-02-06T01:30:45.542Z,-5.31
2023-02-06T01:31:29.554Z,-5.30
2023-02-06T01:32:01.253Z,-5.34
2023-02-06T01:32:36.571Z,-5.36
2023-02-06T01:33:08.254Z,-5.37
2023-02-06T01:33:41.140Z,-5.39
2023-02-06T01:34:15.185Z,-5.42
2023-02-06T01:34:49.009Z,-5.43
2023-02-06T01:35:22.835Z,-5.41
2023-02-06T01:35:59.713Z,-5.43
2023-02-06T01:36:31.357Z,-5.45
2023-02-06T01:37:03.293Z,-5.48
2023-02-06T01:37:36.565Z,-5.47
2023-02-06T01:38:08.231Z,-5.44
2023-02-06T01:38:40.720Z,-5.43
2023-02-06T01:39:19.648Z,-5.45
2023-02-06T01:39:51.323Z,-5.46
2023-02-06T01:40:22.989Z,-5.46
2023-02-06T01:40:59.405Z,-5.49
2023-02-06T01:41:31.113Z,-5.50
2023-02-06T01:42:05.682Z,-5.48
2023-02-06T01:42:38.632Z,-5.50
2023-02-06T01:43:20.456Z,-5.51
2023-02-06T01:44:13.214Z,-5.51
2023-02-06T01:44:44.900Z,-5.52
2023-02-06T01:45:31.396Z,-5.62
2023-02-06T01:46:05.309Z,-5.60
2023-02-06T01:46:39.085Z,-5.61
2023-02-06T01:47:11.108Z,-5.62
2023-02-06T01:47:42.846Z,-5.68
2023-02-06T01:48:23.540Z,-5.70
2023-02-06T01:48:55.218Z,-5.74
2023-02-06T01:49:46.971Z,-5.75
2023-02-06T01:50:18.769Z,-5.80
2023-02-06T01:50:55.991Z,-5.81
2023-02-06T01:51:31.420Z,-5.80
2023-02-06T01:52:06.683Z,-5.79
2023-02-06T01:52:38.566Z,-5.82
2023-02-06T01:53:12.918Z,-5.84
2023-02-06T01:53:52.783Z,-5.84
2023-02-06T01:54:24.859Z,-5.87
2023-02-06T01:55:01.300Z,-5.86
2023-02-06T01:55:35.915Z,-5.90
2023-02-06T01:56:10.090Z,-5.90
2023-02-06T01:56:51.135Z,-5.91
2023-02-06T01:57:27.668Z,-5.92
2023-02-06T01:58:02.069Z,-5.94
2023-02-06T01:58:38.516Z,-5.93
2023-02-06T01:59:10.235Z,-5.93
2023-02-06T01:59:46.724Z,-5.91
2023-02-06T02:00:19.160Z,-5.90
2023-02-06T02:00:51.124Z,-5.89
2023-02-06T02:01:23.210Z,-5.89
2023-02-06T02:01:55.005Z,-5.84
2023-02-06T02:02:28.875Z,-5.78
2023-02-06T02:03:06.073Z,-5.78
2023-02-06T02:03:42.397Z,-5.75
2023-02-06T02:04:21.263Z,-5.71
2023-02-06T02:04:54.172Z,-5.66
2023-02-06T02:05:25.998Z,-5.67
2023-02-06T02:06:09.072Z,-5.65
2023-02-06T02:06:43.977Z,-5.62
2023-02-06T02:07:23.087Z,-5.60
2023-02-06T02:08:02.117Z,-5.63
2023-02-06T02:08:40.826Z,-5.63
2023-02-06T02:09:14.094Z,-5.60
2023-02-06T02:09:48.535Z,-5.63
2023-02-06T02:10:20.256Z,-5.64
2023-02-06T02:10:52.198Z,-5.66
2023-02-06T02:11:31.707Z,-5.66
2023-02-06T02:12:04.423Z,-5.70
2023-02-06T02:12:36.092Z,-5.73
2023-02-06T02:13:07.751Z,-5.73
2023-02-06T02:13:40.048Z,-5.74
2023-02-06T02:14:15.528Z,-5.75
2023-02-06T02:14:50.079Z,-5.74
2023-02-06T02:15:28.253Z,-5.76
2023-02-06T02:16:07.251Z,-5.75
2023-02-06T02:16:53.529Z,-5.78
2023-02-06T02:18:09.134Z,-5.78
2023-02-06T02:18:49.802Z,-5.80
2023-02-06T02:19:43.673Z,-5.80
2023-02-06T02:20:50.330Z,-5.79
2023-02-06T02:22:03.334Z,-5.86
2023-02-06T02:22:50.165Z,-5.84
2023-02-06T02:23:56.767Z,-5.80
2023-02-06T02:24:49.427Z,-5.81
2023-02-06T02:25:49.230Z,-5.81
2023-02-06T02:26:26.547Z,-5.77
2023-02-06T02:27:40.309Z,-5.75
2023-02-06T02:28:29.902Z,-5.78
2023-02-06T02:29:01.517Z,-5.76
2023-02-06T02:30:20.452Z,-5.79
2023-02-06T02:31:28.336Z,-5.75
2023-02-06T02:32:02.687Z,-5.71
2023-02-06T02:33:11.294Z,-5.72
2023-02-06T02:34:20.235Z,-5.71
2023-02-06T02:35:03.141Z,-5.69
2023-02-06T02:35:48.962Z,-5.65
2023-02-06T02:36:29.909Z,-5.66
2023-02-06T02:37:14.578Z,-5.65
2023-02-06T02:38:07.239Z,-5.64
2023-02-06T02:38:53.780Z,-5.66
2023-02-06T02:39:43.688Z,-5.67
2023-02-06T02:40:25.028Z,-5.75
2023-02-06T02:41:14.720Z,-5.76
2023-02-06T02:42:27.386Z,-5.79
2023-02-06T02:43:20.552Z,-5.79
2023-02-06T02:44:18.330Z,-5.81
2023-02-06T02:45:21.022Z,-5.87
2023-02-06T02:46:24.407Z,-5.87
2023-02-06T02:47:01.965Z,-5.94
2023-02-06T02:47:45.932Z,-5.99
2023-02-06T02:48:30.121Z,-5.95
2023-02-06T02:49:11.234Z,-6.00
2023-02-06T02:49:45.964Z,-6.02
2023-02-06T02:50:21.465Z,-6.03
2023-02-06T02:50:55.138Z,-6.01
2023-02-06T02:51:26.902Z,-6.02
2023-02-06T02:52:00.573Z,-5.99
2023-02-06T02:52:32.264Z,-5.98
2023-02-06T02:53:05.217Z,-5.99
2023-02-06T02:53:39.950Z,-5.99
2023-02-06T02:54:11.734Z,-5.99
2023-02-06T02:54:43.408Z,-5.99
2023-02-06T02:55:22.366Z,-5.99
2023-02-06T02:55:54.623Z,-5.97
2023-02-06T02:56:27.350Z,-5.99
2023-02-06T02:57:08.481Z,-6.04
2023-02-06T02:57:40.983Z,-6.09
2023-02-06T02:58:18.466Z,-6.12
2023-02-06T02:58:59.252Z,-6.08
2023-02-06T02:59:50.276Z,-6.09
2023-02-06T03:00:24.713Z,-6.07
2023-02-06T03:01:11.719Z,-6.09
2023-02-06T03:01:58.640Z,-6.09
2023-02-06T03:02:41.811Z,-6.09
2023-02-06T03:03:16.715Z,-6.12
2023-02-06T03:03:53.106Z,-6.14
2023-02-06T03:04:33.191Z,-6.12
2023-02-06T03:05:14.821Z,-6.12
2023-02-06T03:06:21.872Z,-6.16
2023-02-06T03:07:10.513Z,-6.13
2023-02-06T03:07:53.386Z,-6.13
2023-02-06T03:08:33.730Z,-6.16
2023-02-06T03:09:16.422Z,-6.15
2023-02-06T03:10:18.760Z,-6.15
2023-02-06T03:11:11.634Z,-6.15
2023-02-06T03:12:13.971Z,-6.14
2023-02-06T03:12:48.838Z,-6.17
2023-02-06T03:13:35.552Z,-6.20
2023-02-06T03:14:27.318Z,-6.16
2023-02-06T03:15:07.676Z,-6.18
2023-02-06T03:16:36.576Z,-6.21
2023-02-06T03:17:15.352Z,-6.22
2023-02-06T03:18:03.836Z,-6.23
2023-02-06T03:18:55.739Z,-6.22
2023-02-06T03:19:35.567Z,-6.18
2023-02-06T03:20:11.247Z,-6.26
2023-02-06T03:20:46.479Z,-6.25
2023-02-06T03:21:21.600Z,-6.26
2023-02-06T03:21:53.489Z,-6.26
2023-02-06T03:22:28.942Z,-6.26
2023-02-06T03:23:04.211Z,-6.24
2023-02-06T03:23:41.634Z,-6.21
2023-02-06T03:24:20.930Z,-6.20
2023-02-06T03:24:55.246Z,-6.20
2023-02-06T03:25:41.651Z,-6.19
2023-02-06T03:26:18.381Z,-6.12
2023-02-06T03:26:56.654Z,-6.09
2023-02-06T03:27:31.053Z,-6.05
2023-02-06T03:28:10.959Z,-6.03
2023-02-06T03:28:48.007Z,-6.00
2023-02-06T03:29:20.739Z,-5.99
2023-02-06T03:29:55.292Z,-5.96
2023-02-06T03:30:29.979Z,-5.95
2023-02-06T03:31:07.826Z,-5.95
2023-02-06T03:31:47.737Z,-5.95
2023-02-06T03:32:27.796Z,-5.90
2023-02-06T03:33:08.158Z,-5.89
2023-02-06T03:33:56.528Z,-5.88
2023-02-06T03:34:49.071Z,-5.84
2023-02-06T03:35:25.813Z,-5.81
2023-02-06T03:36:01.650Z,-5.77
2023-02-06T03:36:33.550Z,-5.74
2023-02-06T03:37:05.228Z,-5.72
2023-02-06T03:37:38.258Z,-5.70
2023-02-06T03:38:10.601Z,-5.67
2023-02-06T03:38:42.457Z,-5.64
2023-02-06T03:39:14.274Z,-5.60
2023-02-06T03:39:46.059Z,-5.57
2023-02-06T03:40:18.884Z,-5.59
2023-02-06T03:40:53.396Z,-5.56
2023-02-06T03:41:32.959Z,-5.54
2023-02-06T03:42:09.236Z,-5.50
2023-02-06T03:42:48.551Z,-5.53
2023-02-06T03:43:25.046Z,-5.51
2023-02-06T03:43:58.296Z,-5.49
2023-02-06T03:44:42.827Z,-5.49
2023-02-06T03:45:31.659Z,-5.47
2023-02-06T03:46:06.667Z,-5.43
2023-02-06T03:46:43.254Z,-5.45
2023-02-06T03:47:17.232Z,-5.43
2023-02-06T03:47:50.779Z,-5.44
2023-02-06T03:48:33.596Z,-5.45
2023-02-06T03:49:11.781Z,-5.45
2023-02-06T03:49:53.612Z,-5.41
2023-02-06T03:50:30.120Z,-5.41
2023-02-06T03:51:08.106Z,-5.44
2023-02-06T03:52:06.088Z,-5.36
2023-02-06T03:52:43.904Z,-5.40
2023-02-06T03:53:18.944Z,-5.40
2023-02-06T03:53:55.572Z,-5.39
2023-02-06T03:54:29.314Z,-5.39
2023-02-06T03:55:07.156Z,-5.40
2023-02-06T03:55:41.194Z,-5.41
2023-02-06T03:56:25.899Z,-5.45
2023-02-06T03:57:06.874Z,-5.50
2023-02-06T03:57:43.227Z,-5.54
2023-02-06T03:58:15.268Z,-5.57
2023-02-06T03:58:46.915Z,-5.59
2023-02-06T03:59:19.274Z,-5.60
2023-02-06T03:59:51.694Z,-5.54
2023-02-06T04:00:26.162Z,-5.53
2023-02-06T04:01:00.164Z,-5.52
2023-02-06T04:01:32.807Z,-5.52
2023-02-06T04:02:05.881Z,-5.53
2023-02-06T04:02:39.081Z,-5.50
2023-02-06T04:03:12.922Z,-5.53
2023-02-06T04:03:44.784Z,-5.53
2023-02-06T04:04:18.419Z,-5.53
2023-02-06T04:04:50.094Z,-5.54
2023-02-06T04:05:21.763Z,-5.55
2023-02-06T04:05:55.527Z,-5.53
2023-02-06T04:06:29.731Z,-5.52
2023-02-06T04:07:16.996Z,-5.53
2023-02-06T04:07:48.842Z,-5.54
2023-02-06T04:08:20.504Z,-5.53
2023-02-06T04:08:52.137Z,-5.53
2023-02-06T04:09:23.808Z,-5.52
2023-02-06T04:09:55.484Z,-5.50
2023-02-06T04:10:27.225Z,-5.48
2023-02-06T04:10:58.872Z,-5.51
2023-02-06T04:11:30.560Z,-5.52
2023-02-06T04:12:02.219Z,-5.54
2023-02-06T04:12:33.917Z,-5.51
2023-02-06T04:13:05.596Z,-5.53
2023-02-06T04:13:37.292Z,-5.50
2023-02-06T04:14:08.943Z,-5.53
2023-02-06T04:14:40.595Z,-5.52
2023-02-06T04:15:15.077Z,-5.53
2023-02-06T04:15:46.747Z,-5.57
2023-02-06T04:16:18.426Z,-5.61
2023-02-06T04:16:50.249Z,-5.60
2023-02-06T04:17:40.585Z,-5.60
2023-02-06T04:18:13.524Z,-5.62
2023-02-06T04:18:47.813Z,-5.64
2023-02-06T04:19:19.498Z,-5.65
2023-02-06T04:19:51.159Z,-5.69
2023-02-06T04:20:24.891Z,-5.75
2023-02-06T04:20:56.616Z,-5.77
2023-02-06T04:21:28.288Z,-5.77
2023-02-06T04:22:02.584Z,-5.78
2023-02-06T04:22:35.754Z,-5.76
2023-02-06T04:23:12.994Z,-5.76
2023-02-06T04:23:44.649Z,-5.77
2023-02-06T04:24:16.398Z,-5.79
2023-02-06T04:24:49.341Z,-5.80
2023-02-06T04:25:23.824Z,-5.83
2023-02-06T04:25:55.463Z,-5.89
2023-02-06T04:26:27.104Z,-5.89
2023-02-06T04:26:59.143Z,-5.88
2023-02-06T04:27:31.073Z,-5.89
2023-02-06T04:28:02.825Z,-5.93
2023-02-06T04:28:34.676Z,-5.94
2023-02-06T04:29:06.428Z,-5.97
2023-02-06T04:29:39.921Z,-5.98
2023-02-06T04:30:12.261Z,-5.98
2023-02-06T04:30:43.962Z,-6.02
2023-02-06T04:31:15.844Z,-6.04
2023-02-06T04:31:47.705Z,-6.04
2023-02-06T04:32:19.424Z,-6.04
2023-02-06T04:32:51.587Z,-6.02
2023-02-06T04:33:23.272Z,-6.00
2023-02-06T04:33:54.927Z,-6.00
2023-02-06T04:34:26.690Z,-5.95
2023-02-06T04:35:01.209Z,-5.92
2023-02-06T04:35:33.008Z,-5.92
2023-02-06T04:36:04.911Z,-5.96
2023-02-06T04:36:37.149Z,-5.95
2023-02-06T04:37:12.355Z,-5.98
2023-02-06T04:37:44.027Z,-5.96
2023-02-06T04:38:16.066Z,-6.00
2023-02-06T04:38:50.171Z,-6.07
2023-02-06T04:39:24.404Z,-6.11
2023-02-06T04:40:03.231Z,-6.11
2023-02-06T04:40:37.003Z,-6.11
2023-02-06T04:41:08.728Z,-6.12
2023-02-06T04:41:43.029Z,-6.13
2023-02-06T04:42:14.775Z,-6.17
2023-02-06T04:42:46.976Z,-6.19
2023-02-06T04:43:18.677Z,-6.17
2023-02-06T04:43:50.312Z,-6.17
2023-02-06T04:44:22.834Z,-6.18
2023-02-06T04:44:54.470Z,-6.22
2023-02-06T04:45:31.402Z,-6.22
2023-02-06T04:46:03.097Z,-6.22
2023-02-06T04:46:34.810Z,-6.23
2023-02-06T04:47:06.548Z,-6.22
2023-02-06T04:47:38.770Z,-6.22
2023-02-06T04:48:10.437Z,-6.21
2023-02-06T04:48:45.279Z,-6.22
2023-02-06T04:49:17.546Z,-6.22
2023-02-06T04:49:49.178Z,-6.24
2023-02-06T04:50:20.900Z,-6.19
2023-02-06T04:50:52.931Z,-6.15
2023-02-06T04:51:28.508Z,-6.14
2023-02-06T04:52:00.191Z,-6.09
2023-02-06T04:52:32.187Z,-6.06
2023-02-06T04:53:03.851Z,-6.04
2023-02-06T04:53:36.001Z,-6.02
2023-02-06T04:54:08.087Z,-5.98
2023-02-06T04:54:39.755Z,-5.96
2023-02-06T04:55:11.436Z,-5.96
2023-02-06T04:55:43.279Z,-5.95
2023-02-06T04:56:14.963Z,-5.94
2023-02-06T04:56:46.629Z,-5.90
2023-02-06T04:57:18.284Z,-5.92
2023-02-06T04:57:49.920Z,-5.88
2023-02-06T04:58:21.757Z,-5.84
2023-02-06T04:58:53.470Z,-5.82
2023-02-06T04:59:27.709Z,-5.81
2023-02-06T04:59:59.439Z,-5.81
2023-02-06T05:00:31.083Z,-5.80
2023-02-06T05:01:02.808Z,-5.79
2023-02-06T05:01:34.493Z,-5.77
2023-02-06T05:02:08.767Z,-5.76
2023-02-06T05:02:40.554Z,-5.76
2023-02-06T05:03:12.211Z,-5.75
2023-02-06T05:03:47.268Z,-5.77
2023-02-06T05:04:18.950Z,-5.78
2023-02-06T05:04:50.759Z,-5.75
2023-02-06T05:05:22.445Z,-5.80
2023-02-06T05:05:54.197Z,-5.80
2023-02-06T05:06:25.884Z,-5.79
2023-02-06T05:06:57.536Z,-5.82
2023-02-06T05:07:29.234Z,-5.81
2023-02-06T05:08:00.870Z,-5.82
2023-02-06T05:08:34.966Z,-5.81
2023-02-06T05:09:06.860Z,-5.79
2023-02-06T05:09:41.901Z,-5.80
2023-02-06T05:10:14.807Z,-5.81
2023-02-06T05:10:46.480Z,-5.80
2023-02-06T05:11:18.161Z,-5.78
2023-02-06T05:11:49.819Z,-5.82
2023-02-06T05:12:21.495Z,-5.81
2023-02-06T05:12:53.218Z,-5.82
2023-02-06T05:13:27.290Z,-5.82
2023-02-06T05:14:01.032Z,-5.85
2023-02-06T05:14:32.684Z,-5.80
2023-02-06T05:15:07.452Z,-5.80
2023-02-06T05:15:41.743Z,-5.82
2023-02-06T05:16:16.110Z,-5.81
2023-02-06T05:16:47.962Z,-5.81
2023-02-06T05:17:19.626Z,-5.80
2023-02-06T05:17:51.281Z,-5.82
2023-02-06T05:18:23.108Z,-5.82
2023-02-06T05:18:58.732Z,-5.84
2023-02-06T05:19:30.393Z,-5.90
2023-02-06T05:20:02.371Z,-5.91
2023-02-06T05:20:34.012Z,-5.87
2023-02-06T05:21:06.737Z,-5.87
2023-02-06T05:21:38.503Z,-5.88
2023-02-06T05:22:10.146Z,-5.87
2023-02-06T05:22:41.796Z,-5.85
2023-02-06T05:23:13.404Z,-5.84
2023-02-06T05:23:45.042Z,-5.83
2023-02-06T05:24:16.767Z,-5.86
2023-02-06T05:24:48.426Z,-5.89
2023-02-06T05:25:21.218Z,-5.88
2023-02-06T05:25:53.009Z,-5.86
2023-02-06T05:26:24.648Z,-5.87
2023-02-06T05:26:58.378Z,-5.83
2023-02-06T05:27:30.034Z,-5.85
2023-02-06T05:28:02.826Z,-5.82
2023-02-06T05:28:34.704Z,-5.80
2023-02-06T05:29:07.234Z,-5.82
2023-02-06T05:29:38.929Z,-5.81
2023-02-06T05:30:11.541Z,-5.82
2023-02-06T05:30:44.328Z,-5.87
2023-02-06T05:31:23.502Z,-5.88
2023-02-06T05:31:55.268Z,-5.87
2023-02-06T05:32:26.975Z,-5.88
2023-02-06T05:32:58.685Z,-5.93
2023-02-06T05:33:30.678Z,-5.93
2023-02-06T05:34:04.675Z,-5.97
2023-02-06T05:34:36.696Z,-6.00
2023-02-06T05:35:08.473Z,-5.98
2023-02-06T05:35:42.534Z,-5.98
2023-02-06T05:36:14.722Z,-5.97
2023-02-06T05:36:46.444Z,-6.03
2023-02-06T05:37:25.561Z,-6.02
2023-02-06T05:37:58.339Z,-6.04
2023-02-06T05:38:30.212Z,-6.08
2023-02-06T05:39:01.883Z,-6.07
2023-02-06T05:39:36.364Z,-6.03
2023-02-06T05:40:17.333Z,-6.07
2023-02-06T05:40:51.659Z,-6.06
2023-02-06T05:41:23.431Z,-6.06
2023-02-06T05:41:55.080Z,-3.55
2023-02-06T05:42:26.706Z,-4.21
2023-02-06T05:42:58.924Z,-4.73
2023-02-06T05:43:30.702Z,-5.10
2023-02-06T05:44:02.932Z,-5.31
2023-02-06T05:44:34.620Z,-5.50
2023-02-06T05:45:06.925Z,-5.59
2023-02-06T05:45:38.818Z,-5.62
2023-02-06T05:46:12.901Z,-5.65
2023-02-06T05:46:45.339Z,-5.68
2023-02-06T05:47:18.303Z,-4.47
2023-02-06T05:47:50.095Z,-4.53
2023-02-06T05:48:24.352Z,-4.72
2023-02-06T05:48:55.992Z,-5.08
2023-02-06T05:49:27.654Z,-5.19
2023-02-06T05:49:59.306Z,-5.21
2023-02-06T05:50:30.928Z,-5.23
2023-02-06T05:51:04.027Z,-5.26
2023-02-06T05:51:37.837Z,-5.27
2023-02-06T05:52:10.220Z,-5.23
2023-02-06T05:52:52.141Z,-5.25
2023-02-06T05:53:24.272Z,-5.24
2023-02-06T05:53:56.015Z,-5.28
2023-02-06T05:54:30.239Z,-5.31
2023-02-06T05:55:04.458Z,-5.34
2023-02-06T05:55:36.526Z,-5.30
2023-02-06T05:56:08.411Z,-5.26
2023-02-06T05:56:40.065Z,-5.27
2023-02-06T05:57:13.272Z,-5.30
2023-02-06T05:57:45.510Z,-5.31
2023-02-06T05:58:17.346Z,-5.30
2023-02-06T05:58:49.037Z,-5.31
2023-02-06T05:59:20.693Z,-5.31
2023-02-06T05:59:52.307Z,-5.34
2023-02-06T06:00:24.057Z,-5.36
2023-02-06T06:00:55.720Z,-5.37
2023-02-06T06:01:29.184Z,-5.44
2023-02-06T06:02:06.059Z,-5.46
2023-02-06T06:02:37.934Z,-5.46
2023-02-06T06:03:12.408Z,-5.42
2023-02-06T06:03:44.143Z,-5.42
2023-02-06T06:04:15.944Z,-5.45
2023-02-06T06:04:47.652Z,-5.45
2023-02-06T06:05:19.300Z,-5.44
2023-02-06T06:05:51.056Z,-5.45
2023-02-06T06:06:22.816Z,-5.47
2023-02-06T06:06:54.640Z,-5.54
2023-02-06T06:07:26.329Z,-5.56
2023-02-06T06:08:00.543Z,-5.52
2023-02-06T06:08:32.582Z,-5.52
2023-02-06T06:09:04.285Z,-5.53
2023-02-06T06:09:38.866Z,-5.53
2023-02-06T06:10:10.623Z,-5.53
2023-02-06T06:10:42.355Z,-5.53
2023-02-06T06:11:14.373Z,-5.52
2023-02-06T06:11:48.200Z,-5.53
2023-02-06T06:12:23.343Z,-5.57
2023-02-06T06:12:55.141Z,-5.54
2023-02-06T06:13:26.967Z,-5.55
2023-02-06T06:13:58.708Z,-5.56
2023-02-06T06:14:30.389Z,-5.55
2023-02-06T06:15:02.052Z,-5.54
2023-02-06T06:15:34.228Z,-5.56
2023-02-06T06:16:06.408Z,-5.54
2023-02-06T06:16:40.902Z,-5.57
2023-02-06T06:17:12.528Z,-5.61
2023-02-06T06:17:44.183Z,-5.64
2023-02-06T06:18:15.834Z,-5.61
2023-02-06T06:18:47.514Z,-5.62
2023-02-06T06:19:19.892Z,-5.64
2023-02-06T06:19:51.556Z,-5.65
2023-02-06T06:20:23.719Z,-5.62
2023-02-06T06:20:55.445Z,-5.63
2023-02-06T06:21:27.494Z,-5.63
2023-02-06T06:22:01.206Z,-5.64
2023-02-06T06:22:32.889Z,-5.63
2023-02-06T06:23:04.530Z,-5.64
2023-02-06T06:23:36.266Z,-5.68
2023-02-06T06:24:07.959Z,-5.67
2023-02-06T06:24:39.630Z,-5.69
2023-02-06T06:25:13.911Z,-5.70
2023-02-06T06:25:47.336Z,-5.72
2023-02-06T06:26:19.326Z,-5.77
2023-02-06T06:26:51.030Z,-5.76
2023-02-06T06:27:22.695Z,-5.74
2023-02-06T06:27:54.423Z,-5.82
2023-02-06T06:28:26.107Z,-5.35
2023-02-06T06:28:57.759Z,-5.46
2023-02-06T06:29:29.745Z,-5.55
2023-02-06T06:30:01.393Z,-5.56
2023-02-06T06:30:36.156Z,-5.52
2023-02-06T06:31:13.141Z,-5.51
2023-02-06T06:31:44.970Z,-5.46
2023-02-06T06:32:16.661Z,-5.45
2023-02-06T06:32:48.281Z,-5.41
2023-02-06T06:33:19.940Z,-5.40
2023-02-06T06:33:52.763Z,-5.43
2023-02-06T06:34:25.613Z,-5.42
2023-02-06T06:35:00.130Z,-5.44
2023-02-06T06:35:32.045Z,-5.44
2023-02-06T06:36:07.512Z,-5.46
2023-02-06T06:36:39.209Z,-5.44
2023-02-06T06:37:10.847Z,-5.43
2023-02-06T06:37:42.509Z,-5.41
2023-02-06T06:38:14.509Z,-5.42
2023-02-06T06:38:46.493Z,-5.39
2023-02-06T06:39:20.168Z,-5.34
2023-02-06T06:39:51.841Z,-5.37
2023-02-06T06:40:23.537Z,-5.40
2023-02-06T06:40:56.992Z,-5.40
2023-02-06T06:41:28.793Z,-5.39
2023-02-06T06:42:00.463Z,-5.43
2023-02-06T06:42:32.145Z,-5.44
2023-02-06T06:43:06.371Z,-5.43
2023-02-06T06:43:38.118Z,-5.48
2023-02-06T06:44:09.789Z,-5.50
2023-02-06T06:44:41.432Z,-5.53
2023-02-06T06:45:15.468Z,-5.54
2023-02-06T06:45:48.736Z,-5.56
2023-02-06T06:46:20.443Z,-5.57
2023-02-06T06:46:59.760Z,-5.56
2023-02-06T06:47:33.843Z,-5.59
2023-02-06T06:48:05.531Z,-5.57
2023-02-06T06:48:38.355Z,-5.55
2023-02-06T06:49:10.088Z,-5.56
2023-02-06T06:49:46.186Z,-5.56
2023-02-06T06:50:20.672Z,-5.55
2023-02-06T06:50:52.412Z,-5.52
2023-02-06T06:51:25.326Z,-5.53
2023-02-06T06:51:56.978Z,-5.52
2023-02-06T06:52:28.643Z,-5.51
2023-02-06T06:53:02.463Z,-5.50
2023-02-06T06:53:34.140Z,-5.52
2023-02-06T06:54:08.247Z,-5.50
2023-02-06T06:54:42.588Z,-5.47
2023-02-06T06:55:16.687Z,-5.53
2023-02-06T06:55:51.455Z,-5.50
2023-02-06T06:56:23.509Z,-5.45
2023-02-06T06:56:55.257Z,-5.44
2023-02-06T06:57:29.964Z,-5.46
2023-02-06T06:58:01.840Z,-5.43
2023-02-06T06:58:33.870Z,-5.39
2023-02-06T06:59:07.682Z,-5.35
2023-02-06T06:59:39.974Z,-5.32
2023-02-06T07:00:14.473Z,-5.31
2023-02-06T07:00:46.219Z,-5.27
2023-02-06T07:01:19.007Z,-5.28
2023-02-06T07:01:52.521Z,-5.28
2023-02-06T07:02:24.189Z,-5.26
2023-02-06T07:02:55.868Z,-5.29
2023-02-06T07:03:27.602Z,-5.28
2023-02-06T07:04:00.383Z,-5.26
2023-02-06T07:04:32.418Z,-5.25
2023-02-06T07:05:07.636Z,-5.32
2023-02-06T07:05:39.557Z,-5.23
2023-02-06T07:06:14.406Z,-5.24
2023-02-06T07:06:50.081Z,-5.19
2023-02-06T07:07:22.032Z,-5.16
2023-02-06T07:07:55.896Z,-5.14
2023-02-06T07:08:31.163Z,-5.13
2023-02-06T07:09:05.640Z,-5.09
2023-02-06T07:09:37.314Z,-5.12
2023-02-06T07:10:11.731Z,-5.06
2023-02-06T07:10:43.411Z,-5.08
2023-02-06T07:11:18.525Z,-5.04
2023-02-06T07:11:50.514Z,-5.02
2023-02-06T07:12:22.530Z,-5.00
2023-02-06T07:12:55.103Z,-4.96
2023-02-06T07:13:26.780Z,-4.92
2023-02-06T07:13:58.458Z,-4.93
2023-02-06T07:14:30.109Z,-4.98
2023-02-06T07:15:02.170Z,-4.93
2023-02-06T07:15:34.076Z,-4.88
2023-02-06T07:16:06.258Z,-4.88
2023-02-06T07:16:39.895Z,-4.83
2023-02-06T07:17:11.566Z,-4.80
2023-02-06T07:17:43.227Z,-4.75
2023-02-06T07:18:15.090Z,-4.72
2023-02-06T07:18:47.464Z,-4.69
2023-02-06T07:19:19.070Z,-4.65
2023-02-06T07:19:52.535Z,-4.62
2023-02-06T07:20:27.025Z,-4.56
2023-02-06T07:20:59.091Z,-4.51
2023-02-06T07:21:30.851Z,-4.44
2023-02-06T07:22:02.492Z,-4.39
2023-02-06T07:22:34.131Z,-4.37
2023-02-06T07:23:06.394Z,-4.31
2023-02-06T07:23:40.460Z,-4.30
2023-02-06T07:24:12.183Z,-4.26
2023-02-06T07:24:43.810Z,-4.20
2023-02-06T07:25:15.506Z,-4.20
2023-02-06T07:25:47.299Z,-4.14
2023-02-06T07:26:18.959Z,-4.13
2023-02-06T07:26:51.758Z,-4.10
2023-02-06T07:27:23.497Z,-4.04
2023-02-06T07:27:55.154Z,-3.96
2023-02-06T07:28:30.482Z,-3.96
2023-02-06T07:29:03.622Z,-3.91